createdAt,value
2019-04-29T00:00:54.821Z,5.93
2019-04-29T00:03:27.641Z,5.27
2019-04-29T00:05:58.511Z,5.40
2019-04-29T00:08:30.214Z,4.13
2019-04-29T00:11:01.965Z,5.10
2019-04-29T00:13:32.729Z,4.40
2019-04-29T00:16:19.843Z,4.57
2019-04-29T00:18:52.121Z,3.97
2019-04-29T00:21:24.276Z,4.47
2019-04-29T00:24:03.554Z,4.03
2019-04-29T00:26:28.365Z,3.60
2019-04-29T00:29:09.732Z,4.63
2019-04-29T00:31:41.369Z,4.57
2019-04-29T00:34:11.934Z,4.30
2019-04-29T00:36:51.370Z,3.70
2019-04-29T00:39:26.389Z,5.53
2019-04-29T00:42:06.731Z,4.57
2019-04-29T00:44:37.335Z,3.87
2019-04-29T00:47:07.809Z,5.40
2019-04-29T00:49:38.507Z,3.70
2019-04-29T00:52:10.193Z,5.17
2019-04-29T00:54:51.252Z,4.63
2019-04-29T00:57:21.910Z,4.53
2019-04-29T00:59:56.581Z,4.87
2019-04-29T01:02:27.293Z,5.17
2019-04-29T01:04:59.003Z,4.70
2019-04-29T01:07:45.061Z,5.47
2019-04-29T01:10:15.761Z,5.27
2019-04-29T01:12:46.356Z,7.73
2019-04-29T01:15:22.235Z,4.93
2019-04-29T01:17:52.796Z,6.03
2019-04-29T01:20:38.304Z,5.63
2019-04-29T01:23:09.025Z,5.40
2019-04-29T01:25:41.030Z,6.10
2019-04-29T01:28:13.381Z,5.00
2019-04-29T01:31:07.213Z,4.77
2019-04-29T01:33:59.306Z,6.37
2019-04-29T01:36:34.277Z,7.17
2019-04-29T01:39:17.075Z,5.73
2019-04-29T01:41:59.504Z,6.97
2019-04-29T01:44:57.513Z,4.77
2019-04-29T01:47:28.159Z,5.80
2019-04-29T01:49:58.892Z,4.87
2019-04-29T01:52:37.489Z,4.93
2019-04-29T01:55:08.435Z,5.27
2019-04-29T01:57:39.006Z,5.30
2019-04-29T02:00:20.684Z,6.50
2019-04-29T02:02:51.285Z,6.97
2019-04-29T02:05:22.112Z,8.23
2019-04-29T02:07:55.994Z,6.03
2019-04-29T02:10:29.863Z,7.20
2019-04-29T02:13:02.196Z,8.37
2019-04-29T02:15:39.457Z,5.77
2019-04-29T02:18:11.865Z,7.13
2019-04-29T02:20:44.259Z,6.83
2019-04-29T02:23:18.158Z,7.93
2019-04-29T02:25:51.202Z,6.57
2019-04-29T02:28:25.439Z,7.70
2019-04-29T02:30:59.432Z,8.67
2019-04-29T02:33:33.675Z,8.30
2019-04-29T02:36:05.880Z,6.97
2019-04-29T02:38:40.017Z,8.07
2019-04-29T02:41:16.935Z,7.67
2019-04-29T02:43:49.796Z,6.80
2019-04-29T02:46:22.170Z,11.80
2019-04-29T02:48:54.453Z,11.47
2019-04-29T02:51:44.580Z,9.60
2019-04-29T02:54:17.135Z,11.50
2019-04-29T02:56:51.016Z,9.83
2019-04-29T02:59:31.148Z,9.43
2019-04-29T03:02:16.125Z,8.77
2019-04-29T03:04:51.838Z,8.63
2019-04-29T03:07:23.707Z,8.20
2019-04-29T03:10:15.524Z,9.40
2019-04-29T03:12:46.672Z,8.03
2019-04-29T03:15:29.731Z,8.20
2019-04-29T03:18:01.677Z,8.47
2019-04-29T03:20:35.758Z,9.83
2019-04-29T03:23:17.786Z,9.00
2019-04-29T03:25:56.723Z,9.87
2019-04-29T03:28:27.522Z,9.03
2019-04-29T03:30:58.997Z,11.40
2019-04-29T03:33:42.915Z,9.63
2019-04-29T03:36:14.266Z,9.90
2019-04-29T03:38:45.786Z,8.37
2019-04-29T03:41:16.971Z,8.47
2019-04-29T03:43:49.222Z,10.73
2019-04-29T03:46:20.502Z,10.57
2019-04-29T03:48:56.617Z,9.87
2019-04-29T03:51:27.373Z,10.70
2019-04-29T03:54:00.113Z,11.40
2019-04-29T03:56:34.189Z,12.57
2019-04-29T03:59:04.997Z,11.33
2019-04-29T04:01:42.747Z,13.80
2019-04-29T04:04:15.443Z,13.27
2019-04-29T04:06:47.868Z,12.23
2019-04-29T04:09:28.046Z,13.47
2019-04-29T04:12:00.907Z,13.23
2019-04-29T04:14:33.964Z,15.97
2019-04-29T04:17:11.396Z,15.27
2019-04-29T04:19:42.247Z,13.90
2019-04-29T04:22:12.837Z,14.33
2019-04-29T04:24:45.454Z,16.23
2019-04-29T04:27:16.357Z,14.73
2019-04-29T04:29:47.218Z,14.67
2019-04-29T04:32:17.802Z,16.10
2019-04-29T04:34:48.702Z,17.77
2019-04-29T04:37:27.674Z,19.53
2019-04-29T04:40:06.105Z,17.00
2019-04-29T04:42:36.747Z,17.40
2019-04-29T04:45:15.607Z,18.23
2019-04-29T04:47:53.163Z,17.90
2019-04-29T04:50:28.327Z,15.73
2019-04-29T04:52:59.192Z,14.83
2019-04-29T04:55:35.412Z,19.33
2019-04-29T04:58:06.185Z,20.30
2019-04-29T05:00:37.965Z,16.93
2019-04-29T05:03:15.677Z,21.53
2019-04-29T05:05:50.149Z,19.00
2019-04-29T05:08:28.020Z,17.57
2019-04-29T05:10:58.670Z,16.90
2019-04-29T05:13:29.317Z,18.43
2019-04-29T05:15:59.957Z,15.97
2019-04-29T05:18:30.534Z,19.37
2019-04-29T05:21:01.177Z,22.13
2019-04-29T05:23:32.853Z,18.17
2019-04-29T05:26:04.576Z,15.27
2019-04-29T05:28:35.212Z,18.40
2019-04-29T05:31:18.687Z,18.57
2019-04-29T05:33:49.285Z,19.17
2019-04-29T05:36:39.235Z,16.90
2019-04-29T05:39:16.352Z,18.07
2019-04-29T05:41:46.986Z,16.43
2019-04-29T05:44:26.089Z,17.00
2019-04-29T05:47:01.014Z,16.30
2019-04-29T05:49:41.664Z,14.03
2019-04-29T05:52:20.090Z,15.30
2019-04-29T05:54:53.717Z,14.30
2019-04-29T05:57:25.240Z,15.90
2019-04-29T05:59:57.252Z,14.23
2019-04-29T06:02:36.364Z,15.47
2019-04-29T06:05:05.888Z,14.67
2019-04-29T06:07:36.637Z,16.60
2019-04-29T06:10:07.559Z,13.57
2019-04-29T06:12:38.177Z,14.67
2019-04-29T06:15:11.034Z,15.57
2019-04-29T06:17:44.748Z,15.03
2019-04-29T06:20:33.419Z,16.20
2019-04-29T06:23:05.071Z,17.27
2019-04-29T06:25:35.676Z,15.03
2019-04-29T06:28:11.285Z,16.40
2019-04-29T06:30:45.264Z,15.00
2019-04-29T06:33:14.241Z,12.90
2019-04-29T06:35:47.352Z,14.70
2019-04-29T06:38:17.371Z,15.13
2019-04-29T06:40:47.971Z,14.60
2019-04-29T06:43:30.700Z,16.20
2019-04-29T06:46:01.397Z,17.47
2019-04-29T06:48:32.089Z,17.37
2019-04-29T06:51:02.807Z,16.70
2019-04-29T06:53:33.522Z,21.67
2019-04-29T06:56:04.293Z,20.47
2019-04-29T06:58:36.697Z,23.00
2019-04-29T07:01:19.424Z,20.20
2019-04-29T07:03:50.079Z,25.00
2019-04-29T07:06:32.890Z,23.67
2019-04-29T07:09:06.115Z,22.03
2019-04-29T07:11:38.475Z,29.30
2019-04-29T07:14:12.933Z,27.00
2019-04-29T07:16:43.708Z,28.70
2019-04-29T07:19:18.370Z,33.07
2019-04-29T07:21:53.247Z,28.77
2019-04-29T07:24:22.009Z,26.00
2019-04-29T07:26:52.800Z,28.83
2019-04-29T07:29:29.637Z,28.90
2019-04-29T07:31:58.125Z,29.33
2019-04-29T07:34:33.820Z,28.73
2019-04-29T07:37:16.763Z,29.50
2019-04-29T07:39:47.840Z,31.10
2019-04-29T07:42:18.752Z,35.07
2019-04-29T07:45:07.349Z,32.27
2019-04-29T07:47:56.322Z,31.67
2019-04-29T07:50:22.405Z,33.37
2019-04-29T07:53:15.706Z,32.50
2019-04-29T07:55:49.646Z,31.80
2019-04-29T07:58:27.379Z,32.63
2019-04-29T08:01:00.144Z,33.07
2019-04-29T08:03:40.369Z,31.07
2019-04-29T08:06:18.420Z,33.80
2019-04-29T08:08:55.565Z,36.50
2019-04-29T08:11:22.421Z,37.03
2019-04-29T08:13:55.091Z,36.73
2019-04-29T08:16:32.727Z,34.40
2019-04-29T08:19:04.955Z,35.00
2019-04-29T08:21:36.037Z,34.10
2019-04-29T08:24:06.874Z,39.27
2019-04-29T08:26:41.428Z,36.37
2019-04-29T08:29:10.267Z,35.67
2019-04-29T08:31:44.020Z,41.03
2019-04-29T08:34:18.740Z,33.00
2019-04-29T08:36:48.310Z,32.27
2019-04-29T08:39:19.144Z,32.87
2019-04-29T08:41:50.110Z,32.67
2019-04-29T08:44:38.602Z,32.67
2019-04-29T08:47:16.777Z,31.97
2019-04-29T08:49:47.811Z,36.57
2019-04-29T08:52:18.631Z,40.83
2019-04-29T08:54:50.781Z,35.33
2019-04-29T08:57:36.476Z,34.67
2019-04-29T09:00:09.073Z,31.17
2019-04-29T09:02:41.352Z,28.07
2019-04-29T09:05:22.306Z,28.77
2019-04-29T09:07:57.364Z,24.83
2019-04-29T09:10:38.424Z,26.03
2019-04-29T09:13:09.344Z,26.77
2019-04-29T09:15:42.144Z,18.37
2019-04-29T09:18:13.973Z,21.80
2019-04-29T09:20:46.781Z,20.57
2019-04-29T09:23:19.631Z,16.70
2019-04-29T09:26:08.580Z,17.77
2019-04-29T09:28:39.403Z,19.63
2019-04-29T09:31:10.169Z,13.60
2019-04-29T09:33:44.106Z,19.10
2019-04-29T09:36:15.114Z,20.43
2019-04-29T09:38:45.987Z,20.87
2019-04-29T09:41:30.662Z,18.93
2019-04-29T09:44:07.378Z,17.07
2019-04-29T09:46:40.314Z,20.57
2019-04-29T09:49:11.264Z,20.33
2019-04-29T09:51:42.047Z,28.00
2019-04-29T09:54:14.525Z,23.03
2019-04-29T09:56:45.225Z,27.63
2019-04-29T09:59:23.590Z,27.07
2019-04-29T10:02:04.965Z,28.23
2019-04-29T10:04:38.363Z,25.80
2019-04-29T10:07:14.476Z,24.87
2019-04-29T10:09:57.209Z,26.53
2019-04-29T10:12:25.358Z,24.87
2019-04-29T10:14:56.088Z,22.77
2019-04-29T10:17:34.146Z,20.17
2019-04-29T10:20:11.312Z,23.10
2019-04-29T10:22:43.105Z,19.33
2019-04-29T10:25:15.062Z,20.50
2019-04-29T10:27:45.767Z,23.33
2019-04-29T10:30:21.192Z,24.43
2019-04-29T10:32:53.975Z,30.03
2019-04-29T10:35:24.733Z,18.33
2019-04-29T10:37:56.507Z,21.60
2019-04-29T10:40:31.019Z,18.67
2019-04-29T10:43:19.839Z,19.27
2019-04-29T10:46:20.910Z,19.33
2019-04-29T10:49:03.580Z,17.47
2019-04-29T10:51:37.674Z,18.90
2019-04-29T10:54:08.831Z,20.50
2019-04-29T10:56:41.032Z,19.80
2019-04-29T10:59:34.988Z,19.03
2019-04-29T11:02:22.527Z,20.83
2019-04-29T11:05:13.528Z,16.33
2019-04-29T11:07:45.955Z,16.63
2019-04-29T11:10:25.644Z,14.10
2019-04-29T11:12:57.072Z,16.37
2019-04-29T11:15:32.608Z,14.40
2019-04-29T11:18:04.108Z,16.23
2019-04-29T11:20:35.592Z,17.43
2019-04-29T11:23:18.203Z,17.93
2019-04-29T11:26:00.964Z,15.77
2019-04-29T11:28:33.365Z,13.63
2019-04-29T11:31:14.015Z,15.60
2019-04-29T11:33:49.386Z,15.20
2019-04-29T11:36:29.440Z,14.67
2019-04-29T11:39:00.012Z,14.23
2019-04-29T11:41:32.011Z,16.60
2019-04-29T11:44:02.734Z,14.80
2019-04-29T11:46:33.662Z,15.07
2019-04-29T11:49:05.872Z,18.10
2019-04-29T11:52:07.628Z,15.63
2019-04-29T11:54:20.766Z,12.73
2019-04-29T11:57:09.566Z,14.13
2019-04-29T11:59:44.036Z,11.50
2019-04-29T12:02:45.294Z,12.93
2019-04-29T12:05:18.016Z,10.23
2019-04-29T12:08:03.836Z,9.70
2019-04-29T12:10:32.551Z,12.30
2019-04-29T12:13:13.062Z,11.70
2019-04-29T12:15:59.115Z,10.73
2019-04-29T12:18:33.954Z,10.70
2019-04-29T12:21:05.755Z,11.60
2019-04-29T12:23:36.837Z,13.00
2019-04-29T12:26:07.760Z,12.30
2019-04-29T12:28:42.748Z,13.57
2019-04-29T12:31:28.818Z,10.67
2019-04-29T12:34:17.532Z,11.57
2019-04-29T12:36:56.260Z,9.90
2019-04-29T12:39:43.640Z,10.57
2019-04-29T12:42:15.936Z,12.40
2019-04-29T12:44:51.331Z,12.63
2019-04-29T12:47:26.550Z,10.93
2019-04-29T12:50:07.382Z,11.37
2019-04-29T12:52:38.306Z,12.57
2019-04-29T12:55:20.099Z,10.47
2019-04-29T12:57:51.484Z,8.93
2019-04-29T13:00:25.055Z,10.27
2019-04-29T13:03:30.952Z,11.43
2019-04-29T13:06:09.512Z,9.50
2019-04-29T13:08:42.798Z,11.33
2019-04-29T13:11:18.946Z,11.23
2019-04-29T13:13:51.279Z,10.77
2019-04-29T13:16:25.488Z,10.23
2019-04-29T13:19:20.355Z,12.87
2019-04-29T13:21:48.937Z,10.57
2019-04-29T13:24:24.846Z,11.83
2019-04-29T13:26:54.438Z,11.77
2019-04-29T13:29:27.808Z,10.67
2019-04-29T13:32:01.639Z,9.60
2019-04-29T13:34:33.492Z,8.77
2019-04-29T13:37:07.679Z,9.10
2019-04-29T13:39:40.681Z,13.30
2019-04-29T13:42:15.915Z,12.00
2019-04-29T13:45:05.464Z,10.13
2019-04-29T13:47:29.342Z,12.67
2019-04-29T13:50:17.820Z,12.27
2019-04-29T13:52:40.263Z,9.80
2019-04-29T13:55:29.893Z,10.50
2019-04-29T13:57:50.786Z,8.27
2019-04-29T14:00:37.749Z,9.47
2019-04-29T14:03:11.515Z,8.80
2019-04-29T14:05:43.856Z,9.93
2019-04-29T14:08:16.923Z,8.77
2019-04-29T14:10:51.107Z,7.27
2019-04-29T14:13:25.842Z,7.97
2019-04-29T14:16:00.916Z,6.80
2019-04-29T14:18:35.006Z,8.47
2019-04-29T14:21:07.090Z,6.40
2019-04-29T14:23:44.994Z,10.13
2019-04-29T14:26:17.910Z,9.17
2019-04-29T14:28:49.198Z,5.57
2019-04-29T14:31:22.797Z,7.53
2019-04-29T14:34:01.498Z,7.13
2019-04-29T14:36:40.577Z,7.83
2019-04-29T14:39:13.033Z,8.77
2019-04-29T14:41:50.975Z,7.10
2019-04-29T14:44:30.486Z,7.60
2019-04-29T14:47:08.510Z,8.37
2019-04-29T14:49:42.754Z,6.50
2019-04-29T14:52:15.043Z,8.10
2019-04-29T14:54:48.917Z,6.67
2019-04-29T14:57:20.840Z,6.63
2019-04-29T14:59:55.116Z,6.87
2019-04-29T15:02:28.149Z,6.33
2019-04-29T15:05:00.407Z,8.20
2019-04-29T15:07:35.261Z,8.53
2019-04-29T15:10:09.943Z,6.90
2019-04-29T15:13:19.641Z,6.93
2019-04-29T15:16:04.246Z,6.33
2019-04-29T15:18:48.846Z,7.87
2019-04-29T15:21:32.556Z,6.77
2019-04-29T15:24:00.294Z,8.20
2019-04-29T15:26:34.189Z,5.27
2019-04-29T15:29:05.130Z,4.50
2019-04-29T15:31:36.350Z,6.47
2019-04-29T15:34:09.004Z,6.57
2019-04-29T15:36:42.178Z,5.03
2019-04-29T15:39:13.557Z,5.40
2019-04-29T15:41:45.602Z,6.33
2019-04-29T15:44:20.487Z,4.57
2019-04-29T15:46:52.785Z,4.40
2019-04-29T15:49:26.530Z,4.30
2019-04-29T15:51:58.313Z,5.00
2019-04-29T15:54:29.747Z,4.20
2019-04-29T15:57:03.581Z,5.17
2019-04-29T15:59:47.992Z,5.03
2019-04-29T16:02:08.225Z,5.00
2019-04-29T16:04:51.540Z,4.27
2019-04-29T16:07:40.786Z,8.13
2019-04-29T16:10:20.593Z,4.57
2019-04-29T16:13:00.282Z,4.63
2019-04-29T16:15:34.359Z,4.57
2019-04-29T16:18:14.863Z,6.33
2019-04-29T16:20:44.348Z,6.33
2019-04-29T16:23:15.021Z,4.90
2019-04-29T16:25:52.424Z,5.53
2019-04-29T16:28:24.261Z,6.00
2019-04-29T16:30:54.716Z,5.47
2019-04-29T16:33:25.565Z,5.83
2019-04-29T16:38:29.022Z,8.13
2019-04-29T16:41:06.248Z,5.60
2019-04-29T16:43:46.541Z,6.73
2019-04-29T16:46:23.539Z,7.63
2019-04-29T16:48:55.379Z,7.57
2019-04-29T16:51:28.079Z,6.20
2019-04-29T16:54:00.777Z,6.90
2019-04-29T16:56:31.414Z,6.10
2019-04-29T16:59:09.115Z,5.57
2019-04-29T17:01:36.760Z,6.13
2019-04-29T17:04:07.649Z,6.23
2019-04-29T17:07:09.130Z,6.97
2019-04-29T17:09:31.836Z,7.60
2019-04-29T17:12:02.860Z,6.33
2019-04-29T17:15:01.197Z,7.80
2019-04-29T17:17:09.251Z,7.87
2019-04-29T17:19:42.991Z,5.53
2019-04-29T17:22:27.421Z,5.43
2019-04-29T17:24:54.820Z,6.70
2019-04-29T17:27:29.052Z,7.63
2019-04-29T17:30:17.567Z,9.30
2019-04-29T17:33:06.916Z,7.23
2019-04-29T17:35:14.230Z,4.50
2019-04-29T17:35:42.964Z,6.60
2019-04-29T17:38:11.209Z,6.17
2019-04-29T17:40:50.689Z,7.93
2019-04-29T17:43:19.002Z,8.63
2019-04-29T17:46:00.547Z,6.70
2019-04-29T17:48:35.914Z,9.43
2019-04-29T17:51:08.584Z,9.40
2019-04-29T17:53:47.027Z,7.93
2019-04-29T17:56:31.392Z,8.00
2019-04-29T17:59:22.831Z,9.80
2019-04-29T18:02:21.526Z,8.77
2019-04-29T18:04:49.657Z,8.83
2019-04-29T18:07:25.979Z,10.67
2019-04-29T18:10:17.652Z,10.50
2019-04-29T18:12:49.604Z,10.20
2019-04-29T18:15:22.186Z,11.20
2019-04-29T18:17:53.155Z,10.53
2019-04-29T18:20:32.841Z,9.37
2019-04-29T18:23:19.270Z,11.80
2019-04-29T18:25:59.500Z,9.60
2019-04-29T18:28:31.772Z,9.30
2019-04-29T18:31:05.903Z,13.27
2019-04-29T18:33:36.755Z,12.43
2019-04-29T18:36:19.071Z,10.40
2019-04-29T18:38:47.515Z,12.43
2019-04-29T18:41:26.757Z,12.83
2019-04-29T18:43:57.817Z,13.77
2019-04-29T18:46:28.087Z,13.37
2019-04-29T18:49:06.576Z,14.17
2019-04-29T18:51:37.608Z,12.83
2019-04-29T18:54:09.040Z,14.23
2019-04-29T18:56:40.604Z,15.87
2019-04-29T18:59:15.983Z,14.23
2019-04-29T19:01:47.179Z,16.50
2019-04-29T19:04:19.496Z,16.20
2019-04-29T19:07:02.093Z,14.47
2019-04-29T19:09:40.869Z,16.27
2019-04-29T19:12:12.861Z,15.97
2019-04-29T19:14:47.740Z,18.13
2019-04-29T19:17:21.823Z,22.43
2019-04-29T19:19:54.993Z,19.90
2019-04-29T19:22:27.789Z,18.67
2019-04-29T19:24:59.059Z,19.53
2019-04-29T19:27:30.586Z,19.90
2019-04-29T19:30:02.181Z,20.87
2019-04-29T19:32:32.947Z,21.63
2019-04-29T19:35:04.333Z,19.13
2019-04-29T19:37:37.573Z,19.20
2019-04-29T19:40:08.402Z,22.37
2019-04-29T19:42:39.706Z,19.67
2019-04-29T19:45:14.596Z,21.70
2019-04-29T19:47:53.186Z,21.33
2019-04-29T19:50:28.220Z,21.87
2019-04-29T19:53:00.759Z,21.23
2019-04-29T19:55:42.179Z,21.40
2019-04-29T19:58:12.699Z,20.93
2019-04-29T20:00:49.612Z,21.60
2019-04-29T20:03:26.561Z,22.23
2019-04-29T20:06:08.555Z,19.50
2019-04-29T20:08:53.143Z,21.77
2019-04-29T20:11:17.344Z,20.73
2019-04-29T20:14:03.817Z,20.67
2019-04-29T20:16:39.763Z,19.80
2019-04-29T20:19:21.103Z,20.20
2019-04-29T20:22:05.609Z,21.57
2019-04-29T20:24:36.127Z,23.20
2019-04-29T20:27:09.078Z,18.70
2019-04-29T20:29:40.553Z,18.53
2019-04-29T20:32:11.345Z,15.77
2019-04-29T20:34:47.584Z,16.50
2019-04-29T20:37:19.884Z,20.87
2019-04-29T20:39:59.330Z,19.27
2019-04-29T20:42:28.466Z,18.03
2019-04-29T20:45:01.206Z,15.07
2019-04-29T20:47:40.454Z,14.47
2019-04-29T20:50:08.860Z,15.87
2019-04-29T20:52:43.271Z,14.90
2019-04-29T20:55:15.810Z,13.67
2019-04-29T20:57:52.398Z,14.90
2019-04-29T21:00:25.052Z,13.30
2019-04-29T21:02:55.290Z,13.50
2019-04-29T21:05:27.744Z,15.23
2019-04-29T21:08:03.448Z,13.60
2019-04-29T21:10:32.203Z,13.40
2019-04-29T21:13:18.826Z,15.13
2019-04-29T21:16:01.211Z,16.10
2019-04-29T21:18:32.470Z,16.17
2019-04-29T21:21:04.515Z,16.67
2019-04-29T21:23:36.897Z,16.43
2019-04-29T21:26:09.786Z,20.67
2019-04-29T21:28:41.802Z,18.07
2019-04-29T21:31:18.600Z,15.97
2019-04-29T21:33:50.782Z,18.60
2019-04-29T21:36:30.667Z,21.33
2019-04-29T21:39:07.176Z,20.10
2019-04-29T21:41:45.875Z,19.20
2019-04-29T21:44:17.070Z,18.17
2019-04-29T21:46:47.725Z,20.33
2019-04-29T21:49:18.322Z,18.77
2019-04-29T21:51:49.964Z,21.20
2019-04-29T21:54:20.730Z,20.00
2019-04-29T21:56:51.941Z,20.90
2019-04-29T21:59:23.197Z,17.20
2019-04-29T22:01:56.179Z,19.47
2019-04-29T22:04:27.486Z,20.80
2019-04-29T22:06:59.915Z,22.17
2019-04-29T22:09:36.154Z,20.33
2019-04-29T22:12:05.553Z,25.23
2019-04-29T22:14:36.288Z,24.77
2019-04-29T22:17:11.419Z,25.23
2019-04-29T22:19:42.331Z,23.07
2019-04-29T22:22:13.189Z,26.60
2019-04-29T22:24:45.769Z,22.50
2019-04-29T22:27:16.365Z,23.43
2019-04-29T22:29:47.519Z,24.23
2019-04-29T22:32:19.194Z,24.73
2019-04-29T22:34:54.420Z,25.60
2019-04-29T22:37:25.487Z,28.00
2019-04-29T22:39:58.612Z,26.57
2019-04-29T22:42:48.881Z,26.93
2019-04-29T22:45:20.226Z,24.83
2019-04-29T22:47:54.411Z,27.23
2019-04-29T22:50:24.119Z,25.47
2019-04-29T22:52:57.095Z,31.53
2019-04-29T22:55:30.876Z,27.93
2019-04-29T22:58:00.841Z,29.90
2019-04-29T23:00:33.830Z,25.67
2019-04-29T23:03:04.852Z,25.67
2019-04-29T23:05:37.930Z,27.03
2019-04-29T23:08:08.103Z,27.87
2019-04-29T23:11:04.141Z,27.07
2019-04-29T23:13:33.204Z,25.83
2019-04-29T23:16:04.100Z,29.07
2019-04-29T23:18:42.189Z,28.47
2019-04-29T23:21:16.262Z,24.13
2019-04-29T23:24:13.022Z,26.17
2019-04-29T23:26:42.437Z,29.33
2019-04-29T23:29:12.979Z,27.10
2019-04-29T23:31:45.281Z,25.67
2019-04-29T23:34:16.147Z,26.90
2019-04-29T23:36:48.914Z,25.70
2019-04-29T23:39:19.562Z,27.37
2019-04-29T23:41:55.222Z,29.80
2019-04-29T23:44:26.328Z,28.23
2019-04-29T23:47:05.273Z,28.53
2019-04-29T23:49:35.373Z,28.73
2019-04-29T23:52:21.642Z,27.43
2019-04-29T23:54:52.620Z,31.43
2019-04-29T23:57:27.265Z,26.40
